KSSC

Shaw AFB Airport

Sumter, South Carolina, USA
METAR KSSC 162156Z AUTO 25006KT 10SM CLR 14/07 A2998 RMK AO2 SLP154 T01440070 $
Observed Flight Rules
Dec-16 @ 21:56 UTC (50 minutes ago) Visual Flight Rules
Wind Visibility Clouds
250° at 6 knots 10 miles
  • Clear skies
Temperatures Readings
Current 14°C / 57°F
Dewpoint 7°C / 45°F
Humidity 63%
Altimeter 29.98" Hg
Pressure 1015.4 hPa
Elevation 74
METAR KSSC 162156Z AUTO 25006KT 10SM CLR 14/07 A2998 RMK AO2 SLP154 T01440070 $
Observed Flight Rules
Dec-16 @ 21:56 UTC
(50 minutes ago)
VFR
Wind Visibility
250° at 6 knots 10 miles
Clouds
  • Clear skies
Temperature Dewpoint
14°C / 57°F 7°C / 45°F
Humidity Altimeter Pressure
63% 29.98" Hg 1015.4 hPa